Terminal Aerodrome Forecast
Issued by NWS

Home | Current Version | Previous Version | Text Only | Print | Product List | Glossary On
Versions: 1 2 3 4 5 6 7 8 9 10 11 12 13 14 15 16 17 18 19 20 21 22 23 24
279
FTAK31 PAFA 270540
TAFAOT
TAF
PAOT 270540Z 2706/2806 34005KT P6SM BKN110
     FM271000 27008KT P6SM BKN050 OVC120
     FM271500 25009KT P6SM SCT015 BKN050 BKN120=

USA.gov is the U.S. government's official web portal to all federal, state and local government web resources and services.